createdAt,value
2023-03-29T00:00:13.451Z,95037.00
2023-03-29T00:01:34.779Z,95041.00
2023-03-29T00:02:14.446Z,95047.00
2023-03-29T00:03:13.550Z,95047.00
2023-03-29T00:04:13.594Z,95047.00
2023-03-29T00:05:13.408Z,95045.00
2023-03-29T00:06:13.416Z,95047.00
2023-03-29T00:07:13.405Z,95049.00
2023-03-29T00:08:13.386Z,95049.00
2023-03-29T00:09:13.394Z,95053.00
2023-03-29T00:10:13.407Z,95053.00
2023-03-29T00:11:13.390Z,95049.00
2023-03-29T00:12:13.370Z,95041.00
2023-03-29T00:13:13.385Z,95032.00
2023-03-29T00:14:13.362Z,95028.00
2023-03-29T00:15:13.354Z,95028.00
2023-03-29T00:16:13.340Z,95030.00
2023-03-29T00:17:13.472Z,95034.00
2023-03-29T00:18:13.348Z,95035.00
2023-03-29T00:19:13.342Z,95034.00
2023-03-29T00:20:13.338Z,95034.00
2023-03-29T00:21:13.328Z,95035.00
2023-03-29T00:22:13.316Z,95039.00
2023-03-29T00:23:13.368Z,95045.00
2023-03-29T00:24:13.479Z,95051.00
2023-03-29T00:25:13.487Z,95053.00
2023-03-29T00:26:13.500Z,95053.00
2023-03-29T00:27:13.508Z,95053.00
2023-03-29T00:28:13.523Z,95051.00
2023-03-29T00:29:13.506Z,95053.00
2023-03-29T00:30:13.631Z,95049.00
2023-03-29T00:31:13.760Z,95059.00
2023-03-29T00:32:13.715Z,95061.00
2023-03-29T00:33:13.669Z,95067.00
2023-03-29T00:34:13.684Z,95065.00
2023-03-29T00:35:13.704Z,95063.00
2023-03-29T00:36:13.707Z,95063.00
2023-03-29T00:37:13.713Z,95069.00
2023-03-29T00:38:13.742Z,95075.00
2023-03-29T00:39:13.723Z,95077.00
2023-03-29T00:40:13.846Z,95079.00
2023-03-29T00:41:13.857Z,95077.00
2023-03-29T00:42:13.867Z,95075.00
2023-03-29T00:43:13.860Z,95075.00
2023-03-29T00:44:13.877Z,95077.00
2023-03-29T00:45:13.893Z,95081.00
2023-03-29T00:46:13.944Z,95081.00
2023-03-29T00:47:13.931Z,95081.00
2023-03-29T00:48:13.973Z,95077.00
2023-03-29T00:49:13.970Z,95077.00
2023-03-29T00:50:13.945Z,95077.00
2023-03-29T00:51:13.977Z,95079.00
2023-03-29T00:52:14.014Z,95082.00
2023-03-29T00:53:14.013Z,95086.00
2023-03-29T00:54:14.024Z,95088.00
2023-03-29T00:55:14.020Z,95094.00
2023-03-29T00:56:14.098Z,95098.00
2023-03-29T00:57:14.116Z,95100.00
2023-03-29T00:58:14.090Z,95108.00
2023-03-29T00:59:14.101Z,95114.00
2023-03-29T01:00:14.200Z,95118.00
2023-03-29T01:01:14.297Z,95116.00
2023-03-29T01:02:14.402Z,95112.00
2023-03-29T01:03:14.467Z,95106.00
2023-03-29T01:04:14.275Z,95106.00
2023-03-29T01:05:14.317Z,95100.00
2023-03-29T01:06:14.337Z,95106.00
2023-03-29T01:07:14.425Z,95106.00
2023-03-29T01:08:14.366Z,95104.00
2023-03-29T01:09:14.371Z,95104.00
2023-03-29T01:10:14.471Z,95106.00
2023-03-29T01:11:14.466Z,95102.00
2023-03-29T01:12:14.484Z,95102.00
2023-03-29T01:13:14.472Z,95094.00
2023-03-29T01:14:14.495Z,95092.00
2023-03-29T01:15:14.511Z,95088.00
2023-03-29T01:16:14.620Z,95090.00
2023-03-29T01:17:14.624Z,95094.00
2023-03-29T01:18:14.635Z,95094.00
2023-03-29T01:19:14.628Z,95098.00
2023-03-29T01:20:14.655Z,95096.00
2023-03-29T01:21:14.680Z,95096.00
2023-03-29T01:22:14.673Z,95098.00
2023-03-29T01:23:14.694Z,95104.00
2023-03-29T01:24:14.701Z,95108.00
2023-03-29T01:25:14.707Z,95110.00
2023-03-29T01:26:14.734Z,95106.00
2023-03-29T01:27:14.792Z,95100.00
2023-03-29T01:28:14.789Z,95094.00
2023-03-29T01:29:14.795Z,95094.00
2023-03-29T01:30:14.891Z,95094.00
2023-03-29T01:31:14.848Z,95096.00
2023-03-29T01:32:14.854Z,95094.00
2023-03-29T01:33:14.866Z,95094.00
2023-03-29T01:34:14.863Z,95096.00
2023-03-29T01:35:14.901Z,95098.00
2023-03-29T01:36:14.934Z,95098.00
2023-03-29T01:37:14.924Z,95096.00
2023-03-29T01:38:14.958Z,95096.00
2023-03-29T01:39:14.967Z,95096.00
2023-03-29T01:40:14.975Z,95096.00
2023-03-29T01:41:14.985Z,95094.00
2023-03-29T01:42:14.990Z,95098.00
2023-03-29T01:43:15.046Z,95096.00
2023-03-29T01:44:14.996Z,95094.00
2023-03-29T01:45:15.003Z,95094.00
2023-03-29T01:46:15.126Z,95096.00
2023-03-29T01:47:15.137Z,95096.00
2023-03-29T01:48:15.170Z,95094.00
2023-03-29T01:49:15.156Z,95094.00
2023-03-29T01:50:15.135Z,95086.00
2023-03-29T01:51:15.149Z,95084.00
2023-03-29T01:52:15.273Z,95081.00
2023-03-29T01:53:15.275Z,95082.00
2023-03-29T01:54:15.282Z,95082.00
2023-03-29T01:55:15.273Z,95082.00
2023-03-29T01:56:15.307Z,95081.00
2023-03-29T01:57:15.407Z,95082.00
2023-03-29T01:58:15.334Z,95081.00
2023-03-29T01:59:15.335Z,95082.00
2023-03-29T02:00:15.378Z,95082.00
2023-03-29T02:01:15.433Z,95086.00
2023-03-29T02:02:15.470Z,95084.00
2023-03-29T02:03:15.516Z,95084.00
2023-03-29T02:04:15.408Z,95090.00
2023-03-29T02:05:15.413Z,95092.00
2023-03-29T02:06:15.441Z,95092.00
2023-03-29T02:07:15.439Z,95088.00
2023-03-29T02:08:15.489Z,95088.00
2023-03-29T02:09:15.486Z,95082.00
2023-03-29T02:10:15.462Z,95079.00
2023-03-29T02:11:15.577Z,95077.00
2023-03-29T02:12:15.690Z,95075.00
2023-03-29T02:13:15.675Z,95073.00
2023-03-29T02:14:15.729Z,95067.00
2023-03-29T02:15:15.698Z,95061.00
2023-03-29T02:16:15.769Z,95057.00
2023-03-29T02:17:15.743Z,95053.00
2023-03-29T02:18:15.776Z,95051.00
2023-03-29T02:19:15.768Z,95051.00
2023-03-29T02:20:15.797Z,95049.00
2023-03-29T02:21:15.807Z,95049.00
2023-03-29T02:22:15.808Z,95051.00
2023-03-29T02:23:15.857Z,95055.00
2023-03-29T02:24:15.862Z,95063.00
2023-03-29T02:25:15.852Z,95069.00
2023-03-29T02:26:15.882Z,95077.00
2023-03-29T02:27:15.912Z,95077.00
2023-03-29T02:28:16.002Z,95075.00
2023-03-29T02:29:16.014Z,95073.00
2023-03-29T02:30:16.052Z,95073.00
2023-03-29T02:31:16.081Z,95073.00
2023-03-29T02:32:16.080Z,95073.00
2023-03-29T02:33:16.072Z,95071.00
2023-03-29T02:34:16.148Z,95071.00
2023-03-29T02:35:16.168Z,95071.00
2023-03-29T02:36:16.200Z,95071.00
2023-03-29T02:37:16.193Z,95067.00
2023-03-29T02:38:16.207Z,95067.00
2023-03-29T02:39:16.269Z,95059.00
2023-03-29T02:40:16.349Z,95057.00
2023-03-29T02:41:16.304Z,95053.00
2023-03-29T02:42:16.310Z,95049.00
2023-03-29T02:43:16.321Z,95047.00
2023-03-29T02:44:16.342Z,95047.00
2023-03-29T02:45:16.374Z,95047.00
2023-03-29T02:46:16.403Z,95049.00
2023-03-29T02:47:16.397Z,95047.00
2023-03-29T02:48:16.414Z,95047.00
2023-03-29T02:49:16.451Z,95043.00
2023-03-29T02:50:16.489Z,95043.00
2023-03-29T02:51:18.616Z,95037.00
2023-03-29T02:52:16.472Z,95035.00
2023-03-29T02:53:16.462Z,95035.00
2023-03-29T02:54:16.459Z,95035.00
2023-03-29T02:55:16.439Z,95032.00
2023-03-29T02:56:16.445Z,95032.00
2023-03-29T02:57:16.521Z,95032.00
2023-03-29T02:58:16.443Z,95034.00
2023-03-29T02:59:16.437Z,95035.00
2023-03-29T03:00:16.411Z,95034.00
2023-03-29T03:01:16.405Z,95030.00
2023-03-29T03:02:16.479Z,95035.00
2023-03-29T03:03:16.530Z,95034.00
2023-03-29T03:04:16.436Z,95032.00
2023-03-29T03:05:16.389Z,95028.00
2023-03-29T03:06:16.386Z,95030.00
2023-03-29T03:07:16.375Z,95030.00
2023-03-29T03:08:16.400Z,95034.00
2023-03-29T03:09:16.362Z,95034.00
2023-03-29T03:10:16.357Z,95032.00
2023-03-29T03:11:16.339Z,95030.00
2023-03-29T03:12:16.354Z,95035.00
2023-03-29T03:13:16.333Z,95034.00
2023-03-29T03:14:16.362Z,95037.00
2023-03-29T03:15:16.327Z,95035.00
2023-03-29T03:16:16.318Z,95034.00
2023-03-29T03:17:16.305Z,95035.00
2023-03-29T03:18:16.327Z,95035.00
2023-03-29T03:19:16.333Z,95039.00
2023-03-29T03:20:16.272Z,95043.00
2023-03-29T03:21:16.281Z,95051.00
2023-03-29T03:22:16.273Z,95049.00
2023-03-29T03:23:16.283Z,95051.00
2023-03-29T03:24:16.253Z,95057.00
2023-03-29T03:25:16.242Z,95065.00
2023-03-29T03:26:16.265Z,95075.00
2023-03-29T03:27:16.243Z,95079.00
2023-03-29T03:28:16.228Z,95086.00
2023-03-29T03:29:16.213Z,95090.00
2023-03-29T03:30:16.210Z,95084.00
2023-03-29T03:31:16.233Z,95086.00
2023-03-29T03:32:16.196Z,95082.00
2023-03-29T03:33:16.239Z,95079.00
2023-03-29T03:34:16.194Z,95079.00
2023-03-29T03:35:16.190Z,95077.00
2023-03-29T03:36:16.197Z,95075.00
2023-03-29T03:37:16.208Z,95073.00
2023-03-29T03:38:16.166Z,95073.00
2023-03-29T03:39:16.181Z,95073.00
2023-03-29T03:40:16.136Z,95073.00
2023-03-29T03:41:16.128Z,95075.00
2023-03-29T03:42:16.131Z,95075.00
2023-03-29T03:43:16.143Z,95075.00
2023-03-29T03:44:16.135Z,95069.00
2023-03-29T03:45:16.122Z,95065.00
2023-03-29T03:46:16.162Z,95067.00
2023-03-29T03:47:16.102Z,95067.00
2023-03-29T03:48:16.075Z,95061.00
2023-03-29T03:49:16.096Z,95059.00
2023-03-29T03:50:16.109Z,95057.00
2023-03-29T03:51:16.067Z,95057.00
2023-03-29T03:52:16.058Z,95053.00
2023-03-29T03:53:16.064Z,95051.00
2023-03-29T03:54:16.042Z,95053.00
2023-03-29T03:55:16.053Z,95047.00
2023-03-29T03:56:16.038Z,95047.00
2023-03-29T03:57:16.096Z,95047.00
2023-03-29T03:58:16.016Z,95047.00
2023-03-29T03:59:16.025Z,95047.00
2023-03-29T04:00:16.024Z,95045.00
2023-03-29T04:01:16.001Z,95045.00
2023-03-29T04:02:16.013Z,95041.00
2023-03-29T04:03:16.082Z,95043.00
2023-03-29T04:04:16.008Z,95039.00
2023-03-29T04:05:15.986Z,95037.00
2023-03-29T04:06:15.976Z,95034.00
2023-03-29T04:07:15.974Z,95032.00
2023-03-29T04:08:15.965Z,95032.00
2023-03-29T04:09:15.948Z,95034.00
2023-03-29T04:10:15.990Z,95034.00
2023-03-29T04:11:15.956Z,95032.00
2023-03-29T04:12:15.924Z,95030.00
2023-03-29T04:13:15.918Z,95028.00
2023-03-29T04:14:15.927Z,95030.00
2023-03-29T04:15:15.916Z,95030.00
2023-03-29T04:16:15.947Z,95028.00
2023-03-29T04:17:15.895Z,95028.00
2023-03-29T04:18:16.141Z,95028.00
2023-03-29T04:19:15.891Z,95030.00
2023-03-29T04:20:15.876Z,95032.00
2023-03-29T04:21:15.880Z,95030.00
2023-03-29T04:22:15.875Z,95032.00
2023-03-29T04:23:15.863Z,95030.00
2023-03-29T04:24:15.855Z,95030.00
2023-03-29T04:25:15.850Z,95028.00
2023-03-29T04:26:15.881Z,95026.00
2023-03-29T04:27:15.835Z,95024.00
2023-03-29T04:28:15.921Z,95022.00
2023-03-29T04:29:15.934Z,95022.00
2023-03-29T04:30:15.960Z,95022.00
2023-03-29T04:31:15.937Z,95024.00
2023-03-29T04:32:15.942Z,95020.00
2023-03-29T04:33:15.959Z,95020.00
2023-03-29T04:34:15.996Z,95020.00
2023-03-29T04:35:16.006Z,95020.00
2023-03-29T04:36:16.134Z,95016.00
2023-03-29T04:37:16.020Z,95010.00
2023-03-29T04:38:16.031Z,95004.00
2023-03-29T04:39:16.043Z,95004.00
2023-03-29T04:40:16.047Z,95004.00
2023-03-29T04:41:16.064Z,95004.00
2023-03-29T04:42:16.074Z,95006.00
2023-03-29T04:43:16.105Z,95004.00
2023-03-29T04:44:16.187Z,95004.00
2023-03-29T04:45:16.198Z,95002.00
2023-03-29T04:46:16.220Z,95002.00
2023-03-29T04:47:16.215Z,95004.00
2023-03-29T04:48:16.237Z,95012.00
2023-03-29T04:49:16.329Z,95012.00
2023-03-29T04:50:16.349Z,95016.00
2023-03-29T04:51:16.354Z,95016.00
2023-03-29T04:52:16.361Z,95014.00
2023-03-29T04:53:16.414Z,95014.00
2023-03-29T04:54:16.397Z,95012.00
2023-03-29T04:55:16.489Z,95006.00
2023-03-29T04:56:16.498Z,95002.00
2023-03-29T04:57:16.539Z,95006.00
2023-03-29T04:58:16.522Z,95004.00
2023-03-29T04:59:16.543Z,95000.00
2023-03-29T05:00:16.544Z,95000.00
2023-03-29T05:01:16.739Z,95002.00
2023-03-29T05:02:16.667Z,95002.00
2023-03-29T05:03:50.644Z,94992.00
2023-03-29T05:04:50.532Z,94992.00
2023-03-29T05:05:50.501Z,94996.00
2023-03-29T05:06:50.485Z,95002.00
2023-03-29T05:07:50.483Z,95004.00
2023-03-29T05:08:50.511Z,95004.00
2023-03-29T05:09:50.468Z,95004.00
2023-03-29T05:10:50.446Z,95002.00
2023-03-29T05:11:50.457Z,95002.00
2023-03-29T05:12:50.439Z,94996.00
2023-03-29T05:13:50.467Z,94994.00
2023-03-29T05:14:50.468Z,94987.00
2023-03-29T05:15:50.447Z,94988.00
2023-03-29T05:16:50.422Z,94983.00
2023-03-29T05:17:50.451Z,94985.00
2023-03-29T05:18:50.427Z,94988.00
2023-03-29T05:19:50.445Z,94987.00
2023-03-29T05:20:50.452Z,94981.00
2023-03-29T05:21:50.489Z,94981.00
2023-03-29T05:22:50.374Z,94985.00
2023-03-29T05:23:50.388Z,94983.00
2023-03-29T05:24:50.438Z,94985.00
2023-03-29T05:25:50.392Z,94988.00
2023-03-29T05:26:50.350Z,94992.00
2023-03-29T05:27:50.362Z,94992.00
2023-03-29T05:28:50.379Z,94988.00
2023-03-29T05:29:50.361Z,94987.00
2023-03-29T05:30:50.350Z,94985.00
2023-03-29T05:31:50.408Z,94988.00
2023-03-29T05:32:50.363Z,94988.00
2023-03-29T05:33:50.327Z,94987.00
2023-03-29T05:34:50.322Z,94985.00
2023-03-29T05:35:50.323Z,94979.00
2023-03-29T05:36:50.318Z,94979.00
2023-03-29T05:37:50.341Z,94985.00
2023-03-29T05:38:50.332Z,94981.00
2023-03-29T05:39:50.255Z,94979.00
2023-03-29T05:40:50.253Z,94975.00
2023-03-29T05:41:50.257Z,94979.00
2023-03-29T05:42:50.281Z,94981.00
2023-03-29T05:43:50.245Z,94985.00
2023-03-29T05:44:51.567Z,94983.00
2023-03-29T05:45:50.437Z,94977.00
2023-03-29T05:46:50.452Z,94973.00
2023-03-29T05:47:50.516Z,94969.00
2023-03-29T05:48:50.537Z,94963.00
2023-03-29T05:49:50.594Z,94975.00
2023-03-29T05:50:50.685Z,94977.00
2023-03-29T05:51:50.696Z,94981.00
2023-03-29T05:52:50.771Z,94979.00
2023-03-29T05:53:50.813Z,94975.00
2023-03-29T05:54:50.879Z,94973.00
2023-03-29T05:55:51.024Z,94973.00
2023-03-29T05:56:50.994Z,94973.00
2023-03-29T05:57:51.008Z,94971.00
2023-03-29T05:58:52.946Z,94977.00
2023-03-29T05:59:51.056Z,94987.00
2023-03-29T06:00:51.051Z,94987.00
2023-03-29T06:01:51.022Z,94983.00
2023-03-29T06:02:51.144Z,94985.00
2023-03-29T06:03:51.185Z,94985.00
2023-03-29T06:04:51.067Z,94983.00
2023-03-29T06:05:51.014Z,94981.00
2023-03-29T06:06:51.001Z,94979.00
2023-03-29T06:07:51.048Z,94983.00
2023-03-29T06:08:51.005Z,94987.00
2023-03-29T06:09:50.974Z,94990.00
2023-03-29T06:10:50.966Z,94990.00
2023-03-29T06:11:50.974Z,94990.00
2023-03-29T06:12:51.001Z,94992.00
2023-03-29T06:13:50.942Z,94988.00
2023-03-29T06:14:50.944Z,94990.00
2023-03-29T06:15:50.954Z,94996.00
2023-03-29T06:16:50.967Z,94998.00
2023-03-29T06:17:50.988Z,94994.00
2023-03-29T06:18:50.905Z,94994.00
2023-03-29T06:19:50.886Z,94994.00
2023-03-29T06:20:50.907Z,94992.00
2023-03-29T06:21:50.892Z,94996.00
2023-03-29T06:22:50.867Z,94998.00
2023-03-29T06:23:50.861Z,94998.00
2023-03-29T06:24:50.860Z,95000.00
2023-03-29T06:25:51.024Z,95002.00
2023-03-29T06:26:50.857Z,95004.00
2023-03-29T06:27:50.855Z,95006.00
2023-03-29T06:28:52.273Z,95006.00
2023-03-29T06:29:50.844Z,95006.00
2023-03-29T06:30:50.861Z,95000.00
2023-03-29T06:31:50.876Z,95004.00
2023-03-29T06:32:50.852Z,95004.00
2023-03-29T06:33:50.813Z,95006.00
2023-03-29T06:34:50.865Z,95010.00
2023-03-29T06:35:50.851Z,95010.00
2023-03-29T06:36:50.818Z,95012.00
2023-03-29T06:37:50.764Z,95014.00
2023-03-29T06:38:50.771Z,95016.00
2023-03-29T06:39:52.832Z,95018.00
2023-03-29T06:40:50.892Z,95018.00
2023-03-29T06:41:50.948Z,95020.00
2023-03-29T06:42:50.953Z,95020.00
2023-03-29T06:43:50.984Z,95018.00
2023-03-29T06:44:50.994Z,95016.00
2023-03-29T06:45:51.023Z,95016.00
2023-03-29T06:46:52.135Z,95020.00
2023-03-29T06:47:51.574Z,95022.00
2023-03-29T06:48:51.091Z,95024.00
2023-03-29T06:49:51.108Z,95020.00
2023-03-29T06:50:51.137Z,95020.00
2023-03-29T06:51:51.175Z,95020.00
2023-03-29T06:52:51.563Z,95022.00
2023-03-29T06:53:51.205Z,95020.00
2023-03-29T06:54:51.581Z,95026.00
2023-03-29T06:55:51.204Z,95030.00
2023-03-29T06:56:51.273Z,95026.00
2023-03-29T06:57:51.558Z,95024.00
2023-03-29T06:58:51.252Z,95022.00
2023-03-29T06:59:51.297Z,95026.00
2023-03-29T07:00:51.280Z,95028.00
2023-03-29T07:01:51.342Z,95030.00
2023-03-29T07:02:51.569Z,95028.00
2023-03-29T07:03:51.364Z,95028.00
2023-03-29T07:04:51.431Z,95024.00
2023-03-29T07:05:51.366Z,95022.00
2023-03-29T07:06:51.415Z,95026.00
2023-03-29T07:07:51.588Z,95026.00
2023-03-29T07:08:51.480Z,95026.00
2023-03-29T07:09:51.458Z,95030.00
2023-03-29T07:10:51.481Z,95032.00
2023-03-29T07:11:51.528Z,95030.00
2023-03-29T07:12:51.525Z,95028.00
2023-03-29T07:13:51.534Z,95030.00
2023-03-29T07:14:51.609Z,95030.00
2023-03-29T07:15:51.627Z,95035.00
2023-03-29T07:16:51.642Z,95037.00
2023-03-29T07:17:51.649Z,95043.00
2023-03-29T07:18:51.627Z,95037.00
2023-03-29T07:19:51.659Z,95041.00
2023-03-29T07:20:51.674Z,95041.00
2023-03-29T07:21:52.070Z,95045.00
2023-03-29T07:22:51.712Z,95045.00
2023-03-29T07:23:51.708Z,95045.00
2023-03-29T07:24:51.702Z,95037.00
2023-03-29T07:25:51.729Z,95032.00
2023-03-29T07:27:03.222Z,95026.00
2023-03-29T07:27:53.065Z,95024.00
2023-03-29T07:28:51.737Z,95020.00
2023-03-29T07:29:51.741Z,95020.00
2023-03-29T07:30:51.724Z,95022.00
2023-03-29T07:31:51.708Z,95030.00
2023-03-29T07:32:52.085Z,95032.00
2023-03-29T07:33:51.743Z,95032.00
2023-03-29T07:34:51.695Z,95034.00
2023-03-29T07:35:51.727Z,95032.00
2023-03-29T07:36:51.706Z,95034.00
2023-03-29T07:37:52.072Z,95037.00
2023-03-29T07:38:52.932Z,95037.00
2023-03-29T07:39:51.696Z,95035.00
2023-03-29T07:40:51.651Z,95034.00
2023-03-29T07:41:51.668Z,95032.00
2023-03-29T07:42:51.671Z,95026.00
2023-03-29T07:43:51.660Z,95024.00
2023-03-29T07:44:52.085Z,95004.00
2023-03-29T07:45:51.686Z,95020.00
2023-03-29T07:46:51.621Z,95020.00
2023-03-29T07:47:51.689Z,95024.00
2023-03-29T07:48:51.621Z,95022.00
2023-03-29T07:49:52.072Z,95022.00
2023-03-29T07:50:51.601Z,95022.00
2023-03-29T07:51:51.586Z,95022.00
2023-03-29T07:52:52.095Z,95024.00
2023-03-29T07:53:51.568Z,95026.00
2023-03-29T07:54:52.061Z,95028.00
2023-03-29T07:55:51.550Z,95030.00
2023-03-29T07:56:51.574Z,95034.00
2023-03-29T07:57:51.574Z,95030.00
2023-03-29T07:58:51.546Z,95032.00
2023-03-29T07:59:51.559Z,95034.00
2023-03-29T08:00:51.560Z,95032.00
2023-03-29T08:01:51.526Z,95028.00
2023-03-29T08:02:51.539Z,95022.00
2023-03-29T08:03:51.574Z,95026.00
2023-03-29T08:04:51.502Z,95024.00
2023-03-29T08:05:51.489Z,95024.00
2023-03-29T08:06:51.509Z,95022.00
2023-03-29T08:07:51.461Z,95026.00
2023-03-29T08:08:51.516Z,95026.00
2023-03-29T08:09:51.457Z,95020.00
2023-03-29T08:10:51.462Z,95022.00
2023-03-29T08:11:51.455Z,95018.00
2023-03-29T08:12:51.428Z,95016.00
2023-03-29T08:13:51.427Z,95016.00
2023-03-29T08:14:51.574Z,95016.00
2023-03-29T08:15:51.417Z,95018.00
2023-03-29T08:16:51.433Z,95020.00
2023-03-29T08:17:51.445Z,95020.00
2023-03-29T08:18:51.395Z,95024.00
2023-03-29T08:19:51.818Z,95026.00
2023-03-29T08:20:51.375Z,95022.00
2023-03-29T08:21:51.345Z,95028.00
2023-03-29T08:22:51.354Z,95032.00
2023-03-29T08:23:51.364Z,95034.00
2023-03-29T08:24:51.599Z,95028.00
2023-03-29T08:25:51.337Z,95026.00
2023-03-29T08:26:51.396Z,95026.00
2023-03-29T08:27:51.607Z,95028.00
2023-03-29T08:28:51.344Z,95034.00
2023-03-29T08:29:51.311Z,95037.00
2023-03-29T08:30:51.294Z,95043.00
2023-03-29T08:31:51.295Z,95045.00
2023-03-29T08:32:54.450Z,95041.00
2023-03-29T08:33:51.283Z,95041.00
2023-03-29T08:34:51.257Z,95043.00
2023-03-29T08:35:51.334Z,95043.00
2023-03-29T08:36:52.100Z,95051.00
2023-03-29T08:37:51.644Z,95053.00
2023-03-29T08:38:51.231Z,95053.00
2023-03-29T08:39:51.226Z,95049.00
2023-03-29T08:40:51.212Z,95055.00
2023-03-29T08:41:51.236Z,95053.00
2023-03-29T08:42:52.107Z,95059.00
2023-03-29T08:43:51.216Z,95055.00
2023-03-29T08:44:51.192Z,95055.00
2023-03-29T08:45:51.349Z,95055.00
2023-03-29T08:46:51.244Z,95057.00
2023-03-29T08:47:51.238Z,95059.00
2023-03-29T08:48:51.137Z,95059.00
2023-03-29T08:49:51.145Z,95061.00
2023-03-29T08:50:51.135Z,95063.00
2023-03-29T08:51:51.154Z,95059.00
2023-03-29T08:52:51.171Z,95059.00
2023-03-29T08:53:51.112Z,95057.00
2023-03-29T08:54:51.098Z,95059.00
2023-03-29T08:55:51.102Z,95057.00
2023-03-29T08:56:51.223Z,95057.00
2023-03-29T08:57:51.100Z,95055.00
2023-03-29T08:58:51.613Z,95053.00
2023-03-29T08:59:51.069Z,95051.00
2023-03-29T09:00:51.076Z,95055.00
2023-03-29T09:01:51.061Z,95051.00
2023-03-29T09:02:51.143Z,95053.00
2023-03-29T09:03:51.175Z,95051.00
2023-03-29T09:04:51.067Z,95051.00
2023-03-29T09:05:51.023Z,95055.00
2023-03-29T09:06:51.022Z,95053.00
2023-03-29T09:07:51.029Z,95047.00
2023-03-29T09:08:51.108Z,95049.00
2023-03-29T09:09:51.001Z,95049.00
2023-03-29T09:10:51.000Z,95049.00
2023-03-29T09:11:50.984Z,95053.00
2023-03-29T09:12:51.041Z,95057.00
2023-03-29T09:13:51.002Z,95059.00
2023-03-29T09:14:50.951Z,95063.00
2023-03-29T09:15:51.004Z,95063.00
2023-03-29T09:16:50.976Z,95063.00
2023-03-29T09:17:51.165Z,95063.00
2023-03-29T09:18:50.965Z,95063.00
2023-03-29T09:19:50.927Z,95063.00
2023-03-29T09:20:50.949Z,95065.00
2023-03-29T09:21:50.920Z,95063.00
2023-03-29T09:22:51.620Z,95055.00
2023-03-29T09:23:51.022Z,95051.00
2023-03-29T09:24:50.968Z,95053.00
2023-03-29T09:25:53.446Z,95051.00
2023-03-29T09:26:50.872Z,95043.00
2023-03-29T09:27:51.182Z,95041.00
2023-03-29T09:28:50.920Z,95041.00
2023-03-29T09:29:50.914Z,95043.00
2023-03-29T09:30:50.879Z,95037.00
2023-03-29T09:31:50.931Z,95035.00
2023-03-29T09:32:51.132Z,95037.00
2023-03-29T09:33:51.135Z,95035.00
2023-03-29T09:34:50.867Z,95032.00
2023-03-29T09:35:50.869Z,95034.00
2023-03-29T09:36:50.871Z,95035.00
2023-03-29T09:37:50.803Z,95037.00
2023-03-29T09:38:50.791Z,95035.00
2023-03-29T09:39:50.800Z,95034.00
2023-03-29T09:40:50.767Z,95034.00
2023-03-29T09:41:50.768Z,95030.00
2023-03-29T09:42:50.785Z,95034.00
2023-03-29T09:43:50.764Z,95037.00
2023-03-29T09:44:50.742Z,95037.00
2023-03-29T09:45:50.800Z,95037.00
2023-03-29T09:46:50.747Z,95034.00
2023-03-29T09:47:50.788Z,95037.00
2023-03-29T09:48:51.152Z,95035.00
2023-03-29T09:49:50.717Z,95032.00
2023-03-29T09:50:50.762Z,95034.00
2023-03-29T09:51:50.715Z,95024.00
2023-03-29T09:52:50.727Z,95028.00
2023-03-29T09:53:51.115Z,95028.00
2023-03-29T09:54:50.713Z,95032.00
2023-03-29T09:55:50.748Z,95032.00
2023-03-29T09:56:50.792Z,95037.00
2023-03-29T09:57:50.701Z,95034.00
2023-03-29T09:58:50.680Z,95034.00
2023-03-29T09:59:50.668Z,95030.00
2023-03-29T10:00:50.752Z,95030.00
2023-03-29T10:01:50.679Z,95028.00
2023-03-29T10:02:50.737Z,95022.00
2023-03-29T10:03:51.174Z,95024.00
2023-03-29T10:04:51.113Z,95024.00
2023-03-29T10:05:50.633Z,95026.00
2023-03-29T10:06:50.674Z,95024.00
2023-03-29T10:07:50.623Z,95010.00
2023-03-29T10:08:50.606Z,95014.00
2023-03-29T10:09:50.630Z,95010.00
2023-03-29T10:10:50.613Z,95014.00
2023-03-29T10:11:50.628Z,95016.00
2023-03-29T10:12:50.563Z,95012.00
2023-03-29T10:13:50.626Z,95010.00
2023-03-29T10:14:53.500Z,95006.00
2023-03-29T10:15:50.540Z,95008.00
2023-03-29T10:16:50.616Z,95008.00
2023-03-29T10:17:50.558Z,95012.00
2023-03-29T10:18:50.512Z,95012.00
2023-03-29T10:19:50.651Z,95012.00
2023-03-29T10:20:50.549Z,95016.00
2023-03-29T10:21:50.477Z,95018.00
2023-03-29T10:22:50.576Z,95026.00
2023-03-29T10:23:50.544Z,95030.00
2023-03-29T10:24:50.640Z,95034.00
2023-03-29T10:25:50.456Z,95030.00
2023-03-29T10:26:50.472Z,95030.00
2023-03-29T10:27:50.458Z,95035.00
2023-03-29T10:28:50.436Z,95035.00
2023-03-29T10:29:50.452Z,95034.00
2023-03-29T10:30:50.425Z,95032.00
2023-03-29T10:31:50.510Z,95026.00
2023-03-29T10:32:50.490Z,95030.00
2023-03-29T10:33:50.404Z,95028.00
2023-03-29T10:34:50.394Z,95024.00
2023-03-29T10:35:50.448Z,95024.00
2023-03-29T10:36:50.415Z,95022.00
2023-03-29T10:37:50.388Z,95022.00
2023-03-29T10:38:50.357Z,95020.00
2023-03-29T10:39:50.377Z,95016.00
2023-03-29T10:40:50.352Z,95022.00
2023-03-29T10:41:50.385Z,95024.00
2023-03-29T10:42:50.345Z,95020.00
2023-03-29T10:43:50.345Z,95016.00
2023-03-29T10:44:50.372Z,95020.00
2023-03-29T10:45:50.376Z,95014.00
2023-03-29T10:46:50.326Z,95014.00
2023-03-29T10:47:50.369Z,95006.00
2023-03-29T10:48:50.322Z,95008.00
2023-03-29T10:49:51.067Z,95004.00
2023-03-29T10:50:50.293Z,95002.00
2023-03-29T10:51:50.312Z,95002.00
2023-03-29T10:52:50.327Z,95000.00
2023-03-29T10:53:50.273Z,95002.00
2023-03-29T10:54:50.293Z,95004.00
2023-03-29T10:55:50.259Z,95006.00
2023-03-29T10:56:52.343Z,95008.00
2023-03-29T10:57:50.296Z,95010.00
2023-03-29T10:58:50.238Z,95006.00
2023-03-29T10:59:50.691Z,95000.00
2023-03-29T11:00:50.226Z,95004.00
2023-03-29T11:01:50.275Z,94996.00
2023-03-29T11:02:50.347Z,94998.00
2023-03-29T11:03:50.273Z,95000.00
2023-03-29T11:04:50.680Z,94994.00
2023-03-29T11:05:50.211Z,94988.00
2023-03-29T11:06:50.167Z,94988.00
2023-03-29T11:07:50.234Z,94987.00
2023-03-29T11:08:50.150Z,94988.00
2023-03-29T11:09:50.159Z,94988.00
2023-03-29T11:10:50.176Z,94983.00
2023-03-29T11:11:51.583Z,94988.00
2023-03-29T11:12:51.198Z,94985.00
2023-03-29T11:13:50.185Z,94985.00
2023-03-29T11:14:50.712Z,94979.00
2023-03-29T11:15:50.740Z,94985.00
2023-03-29T11:16:50.178Z,94979.00
2023-03-29T11:17:50.194Z,94988.00
2023-03-29T11:18:50.181Z,94988.00
2023-03-29T11:19:50.144Z,94985.00
2023-03-29T11:20:50.152Z,94981.00
2023-03-29T11:21:50.193Z,94977.00
2023-03-29T11:22:50.221Z,94981.00
2023-03-29T11:23:50.278Z,94979.00
2023-03-29T11:24:50.375Z,94977.00
2023-03-29T11:25:50.498Z,94977.00
2023-03-29T11:26:50.447Z,94977.00
2023-03-29T11:27:50.502Z,94975.00
2023-03-29T11:28:50.566Z,94979.00
2023-03-29T11:29:50.641Z,94985.00
2023-03-29T11:30:50.754Z,94983.00
2023-03-29T11:31:50.811Z,94979.00
2023-03-29T11:32:50.864Z,94981.00
2023-03-29T11:33:50.836Z,94971.00
2023-03-29T11:34:50.892Z,94969.00
2023-03-29T11:35:51.027Z,94971.00
2023-03-29T11:36:51.048Z,94973.00
2023-03-29T11:37:51.215Z,94969.00
2023-03-29T11:38:51.124Z,94967.00
2023-03-29T11:39:51.191Z,94969.00
2023-03-29T11:40:51.247Z,94967.00
2023-03-29T11:41:51.315Z,94975.00
2023-03-29T11:42:51.377Z,94965.00
2023-03-29T11:43:51.454Z,94963.00
2023-03-29T11:44:53.414Z,94973.00